createdAt,value
2018-04-22T00:04:19.026Z,4.97
2018-04-22T00:10:09.711Z,5.25
2018-04-22T00:16:00.440Z,5.66
2018-04-22T00:21:51.214Z,4.24
2018-04-22T00:27:41.850Z,5.55
2018-04-22T00:33:32.484Z,5.49
2018-04-22T00:39:23.254Z,5.47
2018-04-22T00:45:13.870Z,5.07
2018-04-22T00:51:04.633Z,5.29
2018-04-22T00:56:55.283Z,5.19
2018-04-22T01:02:46.017Z,5.94
2018-04-22T01:08:36.690Z,5.28
2018-04-22T01:14:27.333Z,5.76
2018-04-22T01:20:18.041Z,5.1
2018-04-22T01:26:08.720Z,5.29
2018-04-22T01:31:59.452Z,5.68
2018-04-22T01:37:50.163Z,5.19
2018-04-22T01:43:40.773Z,5.39
2018-04-22T01:49:31.465Z,5.34
2018-04-22T01:55:22.130Z,5.34
2018-04-22T02:01:12.790Z,5.2
2018-04-22T02:07:03.496Z,5.77
2018-04-22T02:12:54.204Z,5.34
2018-04-22T02:18:44.866Z,5.79
2018-04-22T02:24:35.542Z,5.29
2018-04-22T02:30:26.198Z,5.75
2018-04-22T02:36:16.926Z,5.84
2018-04-22T02:42:07.591Z,6.78
2018-04-22T02:47:58.235Z,5.97
2018-04-22T02:53:48.911Z,5.29
2018-04-22T02:59:39.568Z,5.85
2018-04-22T03:05:30.267Z,6.3
2018-04-22T03:11:20.963Z,5.26
2018-04-22T03:17:11.637Z,5.97
2018-04-22T03:23:02.347Z,7.49
2018-04-22T03:28:52.958Z,5.93
2018-04-22T03:34:43.651Z,5.7
2018-04-22T03:40:34.362Z,6.11
2018-04-22T03:46:24.997Z,6.23
2018-04-22T03:52:15.652Z,6.35
2018-04-22T03:58:06.341Z,6.07
2018-04-22T04:03:57.007Z,6.47
2018-04-22T04:09:47.669Z,7.13
2018-04-22T04:15:38.336Z,6.53
2018-04-22T04:21:29.014Z,6.68
2018-04-22T04:27:19.685Z,6.35
2018-04-22T04:33:10.338Z,6.82
2018-04-22T04:39:01.032Z,6.21
2018-04-22T04:44:51.670Z,6.37
2018-04-22T04:50:42.363Z,6.56
2018-04-22T04:56:33.025Z,5.84
2018-04-22T05:02:23.669Z,5.78
2018-04-22T05:08:14.345Z,6.49
2018-04-22T05:14:05.066Z,6.38
2018-04-22T05:19:55.752Z,6.66
2018-04-22T05:25:46.406Z,6.21
2018-04-22T05:31:37.064Z,8.21
2018-04-22T05:37:27.743Z,8.1
2018-04-22T05:43:18.480Z,8.06
2018-04-22T05:49:09.102Z,7.75
2018-04-22T05:54:59.839Z,8.32
2018-04-22T06:00:50.532Z,7.69
2018-04-22T06:06:41.224Z,8.34
2018-04-22T06:12:31.962Z,10.32
2018-04-22T06:18:22.650Z,10.21
2018-04-22T06:24:13.402Z,10.22
2018-04-22T06:30:04.139Z,9.93
2018-04-22T06:35:54.887Z,10.69
2018-04-22T06:41:45.598Z,11.15
2018-04-22T06:47:36.367Z,10.95
2018-04-22T06:53:27.138Z,12.34
2018-04-22T06:59:17.936Z,13.96
2018-04-22T07:05:08.679Z,21.16
2018-04-22T07:10:59.498Z,14.33
2018-04-22T07:16:50.325Z,14.43
2018-04-22T07:22:41.095Z,13.34
2018-04-22T07:28:31.968Z,10.85
2018-04-22T07:34:22.789Z,10.27
2018-04-22T07:40:13.660Z,10.59
2018-04-22T07:46:04.460Z,10.78
2018-04-22T07:51:55.390Z,9.59
2018-04-22T07:57:46.202Z,10.11
2018-04-22T08:03:37.084Z,9.46
2018-04-22T08:09:27.963Z,7.56
2018-04-22T08:15:18.897Z,8.71
2018-04-22T08:21:09.823Z,7.72
2018-04-22T08:27:00.652Z,8.23
2018-04-22T08:32:51.614Z,9.76
2018-04-22T08:38:42.536Z,9.6
2018-04-22T08:44:33.330Z,9.02
2018-04-22T08:50:24.139Z,7.9
2018-04-22T08:56:14.998Z,9.24
2018-04-22T09:02:05.811Z,9.15
2018-04-22T09:07:56.624Z,9.19
2018-04-22T09:13:47.512Z,9.52
2018-04-22T09:19:38.317Z,10.14
2018-04-22T09:25:29.135Z,7.82
2018-04-22T09:31:20.035Z,6.44
2018-04-22T09:37:10.886Z,6.34
2018-04-22T09:43:01.669Z,6.4
2018-04-22T09:48:52.544Z,6.25
2018-04-22T09:54:43.426Z,6.72
2018-04-22T10:00:34.217Z,5.63
2018-04-22T10:06:25.090Z,5.56
2018-04-22T10:12:16.014Z,5.08
2018-04-22T10:18:06.865Z,4.71
2018-04-22T10:23:57.682Z,4.93
2018-04-22T10:29:48.643Z,5.04
2018-04-22T10:35:39.470Z,5.5
2018-04-22T10:41:30.351Z,6.17
2018-04-22T10:47:21.216Z,6
2018-04-22T10:53:12.138Z,5.45
2018-04-22T10:59:02.976Z,5.87
2018-04-22T11:04:53.867Z,7.75
2018-04-22T11:10:44.752Z,8.27
2018-04-22T11:16:35.601Z,8.38
2018-04-22T11:22:26.566Z,8.27
2018-04-22T11:28:17.522Z,7.11
2018-04-22T11:34:08.207Z,7.34
2018-04-22T11:39:59.097Z,6.62
2018-04-22T11:45:49.958Z,5.55
2018-04-22T11:51:40.802Z,5.6
2018-04-22T11:57:31.628Z,4.1
2018-04-22T12:03:22.530Z,4.27
2018-04-22T12:09:13.380Z,4.51
2018-04-22T12:15:04.229Z,5.1
2018-04-22T12:20:55.075Z,5.31
2018-04-22T12:26:45.930Z,4.2
2018-04-22T12:32:36.771Z,4.36
2018-04-22T12:38:27.619Z,4.52
2018-04-22T12:44:18.526Z,4.49
2018-04-22T12:50:10.057Z,5.2
2018-04-22T12:56:00.253Z,4.57
2018-04-22T13:01:51.108Z,4.63
2018-04-22T13:07:41.977Z,4.73
2018-04-22T13:13:32.832Z,5.44
2018-04-22T13:19:23.735Z,4.47
2018-04-22T13:25:14.562Z,4.4
2018-04-22T13:31:05.422Z,4.19
2018-04-22T13:36:56.307Z,4.19
2018-04-22T13:42:47.138Z,4.4
2018-04-22T13:48:37.967Z,3.71
2018-04-22T13:54:28.848Z,3.6
2018-04-22T14:00:19.678Z,3.29
2018-04-22T14:06:10.546Z,3.37
2018-04-22T14:12:01.372Z,3.5
2018-04-22T14:17:52.175Z,3.31
2018-04-22T14:23:42.975Z,3.23
2018-04-22T14:29:33.919Z,3.35
2018-04-22T14:35:24.729Z,3.67
2018-04-22T14:41:15.663Z,3.35
2018-04-22T14:47:06.561Z,3.44
2018-04-22T14:52:57.428Z,3.5
2018-04-22T14:58:48.200Z,3.34
2018-04-22T15:04:39.064Z,3.51
2018-04-22T15:10:29.938Z,3.29
2018-04-22T15:16:20.826Z,2.91
2018-04-22T15:22:11.698Z,2.83
2018-04-22T15:28:02.652Z,2.82
2018-04-22T15:33:53.516Z,3.01
2018-04-22T15:39:44.384Z,2.79
2018-04-22T15:45:35.304Z,3.36
2018-04-22T15:51:26.140Z,2.83
2018-04-22T15:57:17.102Z,3.05
2018-04-22T16:03:07.920Z,3.07
2018-04-22T16:08:58.784Z,2.96
2018-04-22T16:14:49.653Z,3
2018-04-22T16:20:40.488Z,2.74
2018-04-22T16:26:31.330Z,3.36
2018-04-22T16:32:22.210Z,3.3
2018-04-22T16:38:13.069Z,3.66
2018-04-22T16:44:03.973Z,2.91
2018-04-22T16:49:54.724Z,4
2018-04-22T16:55:45.571Z,3.54
2018-04-22T17:01:36.403Z,3.49
2018-04-22T17:07:27.280Z,3.76
2018-04-22T17:13:18.059Z,3.79
2018-04-22T17:19:08.885Z,3.69
2018-04-22T17:24:59.672Z,3.35
2018-04-22T17:30:50.471Z,3.04
2018-04-22T17:36:41.362Z,3.48
2018-04-22T17:42:32.053Z,3.19
2018-04-22T17:48:22.857Z,3.23
2018-04-22T17:54:13.654Z,3.56
2018-04-22T18:00:04.383Z,3.94
2018-04-22T18:05:55.230Z,3.89
2018-04-22T18:11:45.872Z,3.75
2018-04-22T18:17:36.644Z,3.49
2018-04-22T18:23:27.384Z,4.35
2018-04-22T18:29:18.153Z,4.22
2018-04-22T18:35:08.951Z,4.29
2018-04-22T18:40:59.615Z,4.96
2018-04-22T18:46:50.372Z,4.66
2018-04-22T18:52:41.122Z,4.61
2018-04-22T18:58:31.852Z,4.39
2018-04-22T19:04:22.580Z,4.73
2018-04-22T19:10:13.363Z,4.57
2018-04-22T19:16:04.033Z,4.62
2018-04-22T19:21:54.721Z,5.05
2018-04-22T19:27:45.468Z,5.28
2018-04-22T19:33:36.171Z,5.61
2018-04-22T19:39:26.957Z,5.57
2018-04-22T19:45:17.638Z,5.4
2018-04-22T19:51:08.329Z,5.89
2018-04-22T19:56:59.032Z,5.79
2018-04-22T20:02:49.769Z,6.09
2018-04-22T20:08:40.472Z,5.96
2018-04-22T20:14:31.204Z,6.55
2018-04-22T20:20:21.952Z,6.13
2018-04-22T20:26:12.615Z,6.36
2018-04-22T20:32:03.306Z,6.86
2018-04-22T20:37:54.056Z,6.06
2018-04-22T20:43:44.790Z,6.31
2018-04-22T20:49:35.422Z,6.29
2018-04-22T20:55:26.140Z,6.14
2018-04-22T21:01:16.831Z,6.4
2018-04-22T21:07:07.535Z,6.07
2018-04-22T21:12:58.223Z,6.08
2018-04-22T21:18:48.954Z,6.77
2018-04-22T21:24:39.669Z,7.68
2018-04-22T21:30:30.387Z,6.63
2018-04-22T21:36:21.091Z,7.25
2018-04-22T21:42:11.793Z,8
2018-04-22T21:48:02.475Z,7.48
2018-04-22T21:53:53.153Z,7.5
2018-04-22T21:59:43.875Z,7.87
2018-04-22T22:05:34.554Z,7.91
2018-04-22T22:11:25.268Z,7.92
2018-04-22T22:17:15.976Z,8.19
2018-04-22T22:23:06.678Z,8.7
2018-04-22T22:28:57.403Z,9.33
2018-04-22T22:34:48.133Z,8.49
2018-04-22T22:40:38.727Z,8.41
2018-04-22T22:46:29.426Z,8.27
2018-04-22T22:52:20.129Z,9.35
2018-04-22T22:58:10.887Z,9.91
2018-04-22T23:04:01.523Z,9.29
2018-04-22T23:09:52.266Z,8.46
2018-04-22T23:15:42.931Z,10.14
2018-04-22T23:21:33.629Z,9.43
2018-04-22T23:27:24.330Z,9.31
2018-04-22T23:33:15.011Z,8.41
2018-04-22T23:39:05.684Z,8.87
2018-04-22T23:44:56.399Z,9.34
2018-04-22T23:50:47.081Z,8.72
2018-04-22T23:56:37.759Z,9.49
